createdAt,value
2022-08-14T00:00:51.776Z,7.80
2022-08-14T00:03:40.751Z,8.73
2022-08-14T00:06:29.335Z,7.63
2022-08-14T00:09:16.463Z,7.63
2022-08-14T00:12:06.194Z,8.13
2022-08-14T00:15:21.750Z,8.93
2022-08-14T00:18:14.535Z,8.03
2022-08-14T00:21:01.823Z,7.77
2022-08-14T00:23:54.042Z,8.03
2022-08-14T00:26:41.422Z,7.90
2022-08-14T00:29:39.892Z,8.47
2022-08-14T00:32:50.556Z,8.13
2022-08-14T00:36:36.151Z,8.27
2022-08-14T00:38:42.753Z,9.03
2022-08-14T00:41:33.335Z,8.43
2022-08-14T00:44:21.428Z,8.30
2022-08-14T00:47:21.477Z,10.90
2022-08-14T00:50:17.866Z,10.77
2022-08-14T00:53:10.619Z,9.83
2022-08-14T00:55:58.440Z,8.63
2022-08-14T00:58:48.506Z,8.30
2022-08-14T01:01:37.406Z,8.20
2022-08-14T01:04:51.737Z,9.53
2022-08-14T01:07:50.319Z,9.13
2022-08-14T01:10:53.503Z,8.63
2022-08-14T01:13:42.711Z,8.83
2022-08-14T01:16:33.157Z,8.47
2022-08-14T01:19:41.267Z,10.57
2022-08-14T01:22:29.514Z,7.93
2022-08-14T01:25:16.959Z,8.57
2022-08-14T01:28:04.594Z,9.93
2022-08-14T01:30:59.642Z,8.43
2022-08-14T01:35:15.758Z,10.03
2022-08-14T01:36:58.030Z,8.53
2022-08-14T01:39:45.501Z,9.50
2022-08-14T01:42:36.106Z,9.33
2022-08-14T01:45:25.751Z,11.20
2022-08-14T01:48:14.145Z,9.23
2022-08-14T01:51:04.030Z,9.40
2022-08-14T01:53:55.709Z,8.73
2022-08-14T01:56:44.908Z,9.07
2022-08-14T01:59:38.333Z,10.87
2022-08-14T02:02:25.972Z,9.10
2022-08-14T02:05:14.250Z,11.03
2022-08-14T02:08:09.062Z,9.90
2022-08-14T02:11:24.483Z,16.37
2022-08-14T02:14:14.157Z,9.70
2022-08-14T02:17:01.990Z,9.53
2022-08-14T02:19:49.485Z,10.57
2022-08-14T02:22:47.768Z,10.70
2022-08-14T02:25:35.492Z,11.10
2022-08-14T02:28:58.494Z,9.57
2022-08-14T02:31:42.350Z,10.03
2022-08-14T02:34:33.609Z,9.80
2022-08-14T02:37:23.591Z,13.03
2022-08-14T02:40:33.899Z,10.23
2022-08-14T02:43:22.579Z,9.73
2022-08-14T02:46:12.555Z,10.17
2022-08-14T02:49:01.984Z,10.80
2022-08-14T02:51:53.647Z,10.47
2022-08-14T02:54:40.872Z,9.70
2022-08-14T02:57:40.100Z,9.97
2022-08-14T03:00:28.236Z,10.40
2022-08-14T03:03:17.524Z,10.07
2022-08-14T03:06:06.221Z,11.17
2022-08-14T03:08:56.477Z,9.53
2022-08-14T03:11:45.267Z,9.73
2022-08-14T03:14:39.902Z,10.87
2022-08-14T03:17:31.844Z,11.50
2022-08-14T03:20:30.344Z,10.60
2022-08-14T03:23:19.643Z,10.77
2022-08-14T03:26:12.951Z,11.03
2022-08-14T03:29:05.722Z,10.30
2022-08-14T03:32:00.927Z,10.17
2022-08-14T03:34:55.714Z,10.07
2022-08-14T03:39:11.934Z,10.63
2022-08-14T03:40:52.571Z,11.63
2022-08-14T03:43:44.758Z,11.33
2022-08-14T03:46:39.132Z,11.00
2022-08-14T03:49:46.063Z,10.77
2022-08-14T03:52:47.956Z,10.70
2022-08-14T03:55:43.403Z,10.90
2022-08-14T03:58:36.285Z,9.77
2022-08-14T04:01:25.443Z,11.13
2022-08-14T04:04:16.581Z,11.80
2022-08-14T04:07:05.047Z,10.50
2022-08-14T04:09:52.831Z,10.07
2022-08-14T04:12:39.841Z,10.17
2022-08-14T04:15:27.334Z,11.77
2022-08-14T04:18:14.650Z,10.50
2022-08-14T04:21:06.377Z,11.00
2022-08-14T04:23:57.091Z,11.63
2022-08-14T04:26:45.013Z,11.10
2022-08-14T04:29:38.473Z,10.97
2022-08-14T04:33:00.208Z,11.80
2022-08-14T04:35:55.430Z,10.70
2022-08-14T04:39:00.498Z,11.10
2022-08-14T04:42:10.441Z,10.73
2022-08-14T04:45:01.445Z,10.23
2022-08-14T04:48:06.731Z,11.40
2022-08-14T04:50:57.225Z,11.13
2022-08-14T04:53:48.937Z,11.97
2022-08-14T04:56:35.974Z,12.27
2022-08-14T04:59:24.762Z,11.07
2022-08-14T05:02:11.812Z,10.93
2022-08-14T05:04:58.987Z,10.60
2022-08-14T05:07:53.927Z,11.20
2022-08-14T05:10:46.227Z,11.63
2022-08-14T05:14:16.237Z,10.57
2022-08-14T05:16:46.734Z,9.50
2022-08-14T05:19:44.153Z,15.43
2022-08-14T05:22:32.160Z,9.73
2022-08-14T05:25:19.385Z,9.93
2022-08-14T05:28:19.108Z,11.90
2022-08-14T05:31:07.884Z,10.77
2022-08-14T05:33:56.750Z,9.60
2022-08-14T05:36:50.745Z,10.33
2022-08-14T05:39:49.224Z,9.03
2022-08-14T05:42:37.079Z,10.83
2022-08-14T05:45:26.696Z,9.90
2022-08-14T05:48:23.449Z,9.83
2022-08-14T05:51:22.561Z,10.00
2022-08-14T05:54:12.795Z,9.03
2022-08-14T05:57:12.297Z,9.73
2022-08-14T05:59:59.285Z,10.03
2022-08-14T06:02:47.410Z,10.30
2022-08-14T06:05:35.431Z,9.60
2022-08-14T06:08:36.462Z,9.67
2022-08-14T06:11:31.408Z,9.23
2022-08-14T06:14:21.541Z,10.60
2022-08-14T06:17:11.622Z,9.30
2022-08-14T06:20:14.227Z,10.20
2022-08-14T06:23:02.176Z,9.93
2022-08-14T06:25:52.746Z,9.23
2022-08-14T06:28:41.019Z,8.67
2022-08-14T06:31:32.875Z,8.97
2022-08-14T06:35:10.582Z,9.03
2022-08-14T06:37:39.585Z,9.30
2022-08-14T06:40:34.931Z,9.10
2022-08-14T06:43:27.021Z,9.30
2022-08-14T06:46:22.935Z,10.17
2022-08-14T06:49:19.789Z,9.80
2022-08-14T06:52:07.143Z,12.07
2022-08-14T06:54:57.241Z,9.17
2022-08-14T06:57:46.818Z,9.47
2022-08-14T07:00:34.022Z,9.40
2022-08-14T07:03:39.545Z,9.50
2022-08-14T07:06:46.597Z,8.73
2022-08-14T07:09:44.371Z,10.07
2022-08-14T07:12:56.631Z,9.68
2022-08-14T07:15:50.843Z,8.85
2022-08-14T07:18:42.497Z,9.50
2022-08-14T07:21:29.774Z,8.73
2022-08-14T07:24:21.874Z,9.60
2022-08-14T07:27:09.575Z,8.75
2022-08-14T07:29:56.666Z,9.10
2022-08-14T07:32:44.014Z,8.73
2022-08-14T07:35:42.933Z,8.93
2022-08-14T07:38:43.709Z,8.80
2022-08-14T07:41:42.354Z,9.10
2022-08-14T07:44:35.712Z,9.52
2022-08-14T07:47:23.157Z,8.93
2022-08-14T07:50:16.684Z,8.35
2022-08-14T07:53:09.517Z,11.02
2022-08-14T07:56:00.270Z,9.02
2022-08-14T07:58:58.406Z,9.18
2022-08-14T08:01:51.400Z,9.57
2022-08-14T08:04:47.327Z,9.23
2022-08-14T08:07:39.132Z,9.90
2022-08-14T08:11:02.237Z,9.25
2022-08-14T08:13:49.133Z,9.27
2022-08-14T08:16:42.419Z,9.18
2022-08-14T08:19:36.909Z,8.32
2022-08-14T08:22:27.377Z,10.30
2022-08-14T08:25:19.743Z,9.15
2022-08-14T08:28:22.211Z,9.73
2022-08-14T08:31:13.291Z,8.82
2022-08-14T08:34:06.554Z,9.57
2022-08-14T08:36:53.750Z,8.90
2022-08-14T08:40:01.429Z,9.50
2022-08-14T08:42:50.962Z,9.07
2022-08-14T08:45:40.396Z,8.85
2022-08-14T08:48:31.649Z,8.85
2022-08-14T08:51:34.313Z,10.68
2022-08-14T08:54:26.821Z,10.05
2022-08-14T08:57:21.350Z,8.27
2022-08-14T09:00:25.172Z,8.70
2022-08-14T09:03:17.834Z,9.18
2022-08-14T09:06:09.502Z,9.57
2022-08-14T09:09:26.851Z,9.43
2022-08-14T09:12:21.961Z,11.35
2022-08-14T09:15:12.929Z,8.85
2022-08-14T09:18:01.037Z,9.20
2022-08-14T09:20:54.683Z,8.73
2022-08-14T09:24:26.181Z,9.00
2022-08-14T09:26:53.299Z,9.07
2022-08-14T09:29:41.657Z,8.73
2022-08-14T09:32:59.000Z,8.73
2022-08-14T09:36:04.432Z,8.55
2022-08-14T09:39:10.649Z,8.40
2022-08-14T09:42:35.236Z,8.63
2022-08-14T09:45:39.935Z,9.43
2022-08-14T09:48:40.091Z,9.63
2022-08-14T09:51:32.649Z,8.75
2022-08-14T09:54:22.965Z,9.15
2022-08-14T09:57:28.842Z,7.88
2022-08-14T10:00:29.211Z,8.02
2022-08-14T10:03:36.422Z,10.93
2022-08-14T10:06:28.351Z,8.18
2022-08-14T10:09:16.817Z,8.13
2022-08-14T10:12:18.674Z,9.10
2022-08-14T10:15:21.256Z,7.80
2022-08-14T10:18:18.264Z,8.20
2022-08-14T10:21:09.677Z,8.10
2022-08-14T10:23:57.045Z,7.68
2022-08-14T10:27:00.596Z,7.40
2022-08-14T10:29:52.376Z,7.70
2022-08-14T10:32:51.691Z,7.57
2022-08-14T10:35:41.742Z,7.88
2022-08-14T10:38:36.634Z,7.45
2022-08-14T10:41:46.594Z,9.23
2022-08-14T10:44:47.803Z,7.55
2022-08-14T10:48:06.756Z,7.63
2022-08-14T10:50:51.642Z,8.05
2022-08-14T10:53:40.347Z,8.05
2022-08-14T10:56:36.554Z,7.15
2022-08-14T10:59:35.445Z,10.05
2022-08-14T11:02:54.090Z,8.07
2022-08-14T11:05:47.569Z,7.63
2022-08-14T11:08:35.487Z,9.13
2022-08-14T11:11:28.625Z,7.82
2022-08-14T11:14:26.402Z,7.35
2022-08-14T11:17:14.658Z,8.02
2022-08-14T11:20:14.018Z,7.70
2022-08-14T11:23:05.413Z,7.97
2022-08-14T11:25:58.796Z,7.65
2022-08-14T11:28:50.022Z,7.80
2022-08-14T11:31:38.991Z,7.57
2022-08-14T11:34:31.890Z,7.85
2022-08-14T11:37:31.628Z,7.90
2022-08-14T11:40:30.809Z,7.70
2022-08-14T11:43:29.598Z,9.25
2022-08-14T11:46:29.735Z,8.05
2022-08-14T11:49:34.871Z,9.18
2022-08-14T11:52:22.640Z,8.20
2022-08-14T11:55:12.814Z,8.65
2022-08-14T11:58:10.365Z,8.10
2022-08-14T12:01:04.777Z,7.88
2022-08-14T12:03:57.075Z,7.65
2022-08-14T12:06:52.904Z,8.50
2022-08-14T12:09:42.961Z,7.15
2022-08-14T12:12:35.919Z,7.25
2022-08-14T12:15:36.449Z,8.10
2022-08-14T12:18:34.970Z,9.68
2022-08-14T12:21:29.426Z,8.00
2022-08-14T12:24:36.084Z,7.90
2022-08-14T12:27:34.671Z,7.88
2022-08-14T12:30:35.989Z,7.80
2022-08-14T12:33:34.103Z,8.25
2022-08-14T12:36:25.307Z,6.95
2022-08-14T12:39:24.610Z,6.95
2022-08-14T12:42:27.389Z,7.18
2022-08-14T12:45:33.052Z,7.70
2022-08-14T12:48:31.656Z,7.50
2022-08-14T12:51:27.126Z,7.20
2022-08-14T12:54:28.560Z,8.05
2022-08-14T12:57:20.065Z,7.57
2022-08-14T13:00:22.827Z,6.75
2022-08-14T13:03:24.632Z,7.30
2022-08-14T13:06:14.825Z,7.38
2022-08-14T13:09:11.276Z,8.68
2022-08-14T13:12:32.065Z,9.57
2022-08-14T13:15:14.286Z,7.63
2022-08-14T13:18:04.609Z,7.32
2022-08-14T13:20:57.990Z,6.38
2022-08-14T13:23:47.452Z,6.40
2022-08-14T13:26:37.701Z,5.93
2022-08-14T13:29:31.737Z,6.95
2022-08-14T13:32:21.802Z,5.95
2022-08-14T13:35:16.405Z,6.38
2022-08-14T13:38:05.065Z,6.57
2022-08-14T13:40:57.768Z,6.20
2022-08-14T13:43:59.928Z,7.13
2022-08-14T13:46:48.596Z,6.10
2022-08-14T13:49:56.997Z,6.32
2022-08-14T13:52:55.530Z,8.18
2022-08-14T13:55:44.919Z,5.72
2022-08-14T13:58:40.529Z,5.80
2022-08-14T14:01:42.986Z,5.25
2022-08-14T14:04:31.472Z,6.07
2022-08-14T14:07:23.408Z,7.70
2022-08-14T14:10:12.986Z,5.43
2022-08-14T14:13:02.201Z,6.47
2022-08-14T14:15:58.275Z,5.93
2022-08-14T14:18:52.648Z,5.82
2022-08-14T14:21:40.740Z,5.65
2022-08-14T14:24:34.822Z,6.28
2022-08-14T14:27:40.554Z,6.30
2022-08-14T14:30:52.394Z,5.85
2022-08-14T14:33:47.569Z,5.82
2022-08-14T14:36:37.115Z,6.00
2022-08-14T14:39:37.678Z,5.53
2022-08-14T14:42:32.300Z,5.88
2022-08-14T14:45:22.946Z,6.38
2022-08-14T14:48:15.638Z,5.63
2022-08-14T14:51:03.523Z,6.38
2022-08-14T14:53:52.523Z,5.72
2022-08-14T14:56:51.687Z,6.80
2022-08-14T14:59:39.966Z,6.30
2022-08-14T15:02:34.297Z,7.72
2022-08-14T15:05:24.350Z,6.35
2022-08-14T15:08:26.907Z,6.53
2022-08-14T15:11:30.145Z,6.68
2022-08-14T15:14:56.030Z,6.68
2022-08-14T15:17:41.598Z,7.57
2022-08-14T15:20:30.374Z,6.07
2022-08-14T15:23:22.822Z,7.38
2022-08-14T15:26:12.850Z,8.10
2022-08-14T15:29:18.195Z,6.93
2022-08-14T15:32:09.266Z,6.55
2022-08-14T15:34:58.153Z,8.38
2022-08-14T15:37:45.264Z,8.35
2022-08-14T15:40:41.052Z,6.72
2022-08-14T15:43:35.130Z,6.95
2022-08-14T15:46:43.623Z,6.95
2022-08-14T15:49:34.485Z,7.15
2022-08-14T15:52:32.973Z,8.00
2022-08-14T15:55:23.043Z,7.88
2022-08-14T15:58:14.301Z,8.48
2022-08-14T16:01:50.821Z,8.20
2022-08-14T16:04:28.875Z,8.27
2022-08-14T16:07:16.946Z,8.13
2022-08-14T16:10:28.645Z,8.07
2022-08-14T16:13:17.191Z,8.13
2022-08-14T16:16:49.159Z,7.78
2022-08-14T16:19:32.097Z,7.90
2022-08-14T16:22:58.094Z,12.93
2022-08-14T16:25:35.441Z,8.05
2022-08-14T16:28:27.364Z,8.00
2022-08-14T16:31:15.844Z,8.18
2022-08-14T16:34:44.315Z,8.88
2022-08-14T16:37:16.604Z,8.18
2022-08-14T16:40:04.486Z,8.35
2022-08-14T16:43:04.032Z,8.70
2022-08-14T16:46:00.383Z,7.40
2022-08-14T16:48:57.176Z,7.38
2022-08-14T16:51:46.410Z,7.32
2022-08-14T16:54:45.086Z,7.60
2022-08-14T16:57:33.015Z,7.97
2022-08-14T17:00:32.850Z,7.82
2022-08-14T17:03:20.680Z,7.93
2022-08-14T17:06:33.436Z,8.82
2022-08-14T17:09:43.333Z,8.15
2022-08-14T17:12:35.026Z,7.65
2022-08-14T17:15:27.791Z,7.35
2022-08-14T17:18:22.455Z,9.05
2022-08-14T17:21:31.286Z,7.38
2022-08-14T17:24:55.948Z,8.75
2022-08-14T17:27:27.742Z,7.65
2022-08-14T17:30:32.798Z,9.27
2022-08-14T17:33:44.219Z,7.63
2022-08-14T17:36:32.586Z,8.90
2022-08-14T17:39:21.837Z,7.50
2022-08-14T17:42:32.739Z,7.63
2022-08-14T17:45:28.462Z,8.23
2022-08-14T17:49:10.825Z,8.43
2022-08-14T17:52:02.043Z,7.40
2022-08-14T17:54:52.879Z,8.38
2022-08-14T17:57:51.359Z,8.00
2022-08-14T18:00:39.228Z,7.18
2022-08-14T18:03:51.030Z,8.35
2022-08-14T18:06:57.761Z,7.95
2022-08-14T18:09:56.997Z,7.88
2022-08-14T18:12:47.582Z,7.60
2022-08-14T18:15:38.173Z,7.40
2022-08-14T18:18:32.078Z,7.90
2022-08-14T18:21:56.358Z,7.65
2022-08-14T18:24:32.192Z,8.82
2022-08-14T18:27:26.962Z,7.38
2022-08-14T18:30:33.298Z,7.65
2022-08-14T18:33:33.197Z,8.30
2022-08-14T18:36:46.778Z,8.60
2022-08-14T18:40:02.102Z,7.28
2022-08-14T18:42:57.150Z,8.13
2022-08-14T18:46:01.694Z,8.20
2022-08-14T18:49:15.198Z,7.90
2022-08-14T18:52:18.896Z,8.40
2022-08-14T18:55:16.006Z,8.10
2022-08-14T18:58:28.212Z,8.48
2022-08-14T19:01:33.773Z,8.88
2022-08-14T19:04:37.846Z,7.68
2022-08-14T19:07:33.912Z,7.95
2022-08-14T19:10:37.433Z,8.18
2022-08-14T19:13:44.560Z,8.27
2022-08-14T19:16:43.182Z,10.30
2022-08-14T19:19:40.725Z,9.20
2022-08-14T19:22:32.946Z,8.80
2022-08-14T19:25:51.809Z,8.55
2022-08-14T19:28:49.398Z,10.30
2022-08-14T19:31:42.277Z,8.43
2022-08-14T19:34:48.012Z,9.05
2022-08-14T19:37:54.024Z,8.82
2022-08-14T19:40:42.871Z,8.20
2022-08-14T19:43:55.968Z,10.13
2022-08-14T19:47:01.486Z,8.40
2022-08-14T19:50:30.216Z,8.88
2022-08-14T19:53:11.357Z,10.68
2022-08-14T19:56:02.212Z,8.80
2022-08-14T19:58:54.573Z,10.45
2022-08-14T20:01:44.896Z,8.68
2022-08-14T20:04:47.586Z,8.80
2022-08-14T20:07:59.758Z,8.88
2022-08-14T20:11:04.858Z,8.57
2022-08-14T20:14:20.643Z,8.98
2022-08-14T20:17:19.039Z,9.52
2022-08-14T20:20:32.449Z,8.82
2022-08-14T20:23:20.479Z,9.32
2022-08-14T20:26:30.555Z,8.77
2022-08-14T20:29:30.048Z,8.18
2022-08-14T20:32:17.155Z,8.57
2022-08-14T20:35:07.971Z,8.07
2022-08-14T20:38:31.325Z,8.00
2022-08-14T20:41:20.605Z,8.15
2022-08-14T20:44:28.777Z,8.05
2022-08-14T20:47:18.866Z,8.48
2022-08-14T20:50:22.386Z,10.10
2022-08-14T20:53:26.379Z,8.27
2022-08-14T20:56:28.908Z,7.63
2022-08-14T20:59:18.305Z,9.40
2022-08-14T21:02:34.543Z,8.15
2022-08-14T21:05:36.439Z,8.05
2022-08-14T21:08:26.049Z,8.32
2022-08-14T21:11:20.611Z,11.98
2022-08-14T21:14:19.016Z,9.45
2022-08-14T21:17:14.836Z,7.90
2022-08-14T21:20:25.571Z,8.75
2022-08-14T21:23:14.397Z,10.43
2022-08-14T21:26:03.695Z,9.98
2022-08-14T21:28:52.571Z,7.97
2022-08-14T21:31:40.394Z,8.77
2022-08-14T21:34:32.659Z,9.63
2022-08-14T21:37:19.738Z,8.35
2022-08-14T21:40:40.908Z,8.60
2022-08-14T21:43:19.351Z,8.02
2022-08-14T21:46:06.665Z,9.13
2022-08-14T21:48:53.818Z,8.45
2022-08-14T21:51:55.240Z,10.20
2022-08-14T21:54:49.765Z,9.82
2022-08-14T21:58:04.143Z,7.80
2022-08-14T22:00:52.962Z,11.50
2022-08-14T22:03:44.967Z,8.32
2022-08-14T22:06:36.403Z,8.30
2022-08-14T22:09:29.407Z,8.25
2022-08-14T22:12:58.940Z,9.00
2022-08-14T22:15:32.779Z,8.50
2022-08-14T22:18:21.713Z,10.63
2022-08-14T22:21:16.816Z,7.90
2022-08-14T22:24:10.508Z,8.48
2022-08-14T22:27:01.967Z,8.73
2022-08-14T22:29:54.536Z,7.68
2022-08-14T22:32:57.933Z,8.88
2022-08-14T22:35:45.571Z,9.40
2022-08-14T22:38:36.243Z,8.32
2022-08-14T22:41:31.520Z,8.50
2022-08-14T22:44:28.465Z,8.23
2022-08-14T22:47:16.160Z,8.40
2022-08-14T22:50:31.116Z,7.78
2022-08-14T22:53:12.535Z,9.88
2022-08-14T22:55:59.557Z,8.43
2022-08-14T22:58:46.592Z,9.95
2022-08-14T23:02:03.824Z,8.70
2022-08-14T23:04:53.895Z,8.25
2022-08-14T23:08:58.289Z,8.55
2022-08-14T23:10:48.869Z,8.07
2022-08-14T23:13:40.410Z,7.03
2022-08-14T23:16:31.357Z,7.68
2022-08-14T23:19:20.619Z,6.88
2022-08-14T23:22:07.677Z,7.22
2022-08-14T23:24:58.042Z,7.40
2022-08-14T23:28:03.133Z,7.75
2022-08-14T23:30:51.070Z,7.38
2022-08-14T23:33:45.665Z,7.22
2022-08-14T23:36:38.020Z,8.20
2022-08-14T23:39:40.429Z,8.85
2022-08-14T23:42:40.139Z,7.40
2022-08-14T23:45:37.205Z,7.45
2022-08-14T23:48:27.913Z,7.28
2022-08-14T23:51:17.701Z,7.47
2022-08-14T23:54:49.201Z,7.32
2022-08-14T23:57:14.838Z,7.10
